Time;durP1;ratioP1;P1;durP2;ratioP2;P2;SDS_P1;SDS_P2;PMS_P1;PMS_P2;Temp;Humidity;BMP_temperature;BMP_pressure;BME280_temperature;BME280_humidity;BME280_pressure;Samples;Min_cycle;Max_cycle;Signal;HPM_P1;HPM_P2
2022/01/13 00:00:31;;;;;;;76.05;26.15;;;5.90;99.90;;;;;;4989991;28;20038;-61
2022/01/13 00:02:57;;;;;;;72.72;26.48;;;5.90;99.90;;;;;;4989912;28;20042;-61
2022/01/13 00:05:28;;;;;;;65.35;24.77;;;5.90;99.90;;;;;;4989962;28;20049;-61
2022/01/13 00:07:55;;;;;;;73.20;26.63;;;5.90;99.90;;;;;;4989832;28;20480;-61
2022/01/13 00:10:22;;;;;;;74.28;24.67;;;5.90;99.90;;;;;;4989852;28;20042;-61
2022/01/13 00:12:56;;;;;;;72.95;23.40;;;5.90;99.90;;;;;;4989919;28;20034;-61
2022/01/13 00:15:27;;;;;;;62.78;22.38;;;5.90;99.90;;;;;;4989743;28;20046;-61
2022/01/13 00:25:14;;;;;;;57.53;21.15;;;5.80;99.90;;;;;;4989597;28;20043;-61
2022/01/13 00:27:45;;;;;;;56.83;19.63;;;5.80;99.90;;;;;;4989640;28;20042;-61
2022/01/13 00:30:16;;;;;;;48.42;20.25;;;5.80;99.90;;;;;;4989401;28;20080;-61
2022/01/13 00:32:42;;;;;;;61.78;22.17;;;5.80;99.90;;;;;;4989755;28;20046;-61
2022/01/13 00:35:08;;;;;;;52.22;21.05;;;5.70;99.90;;;;;;4989408;28;20038;-61
2022/01/13 00:37:35;;;;;;;51.58;19.95;;;5.70;99.90;;;;;;4989419;28;20046;-61
2022/01/13 00:40:02;;;;;;;44.50;18.25;;;5.60;99.90;;;;;;4989408;28;20050;-61
2022/01/13 00:42:27;;;;;;;49.30;19.80;;;5.50;99.90;;;;;;4989354;28;20046;-61
2022/01/13 00:44:53;;;;;;;43.05;16.90;;;5.50;99.90;;;;;;4989982;28;20054;-61
2022/01/13 00:47:20;;;;;;;61.33;18.85;;;5.50;99.90;;;;;;4992980;28;20411;-61
2022/01/13 00:49:46;;;;;;;50.92;18.08;;;5.50;99.90;;;;;;4992902;28;20126;-61
2022/01/13 00:52:11;;;;;;;45.22;17.85;;;5.40;99.90;;;;;;4992719;28;20121;-61
2022/01/13 00:54:37;;;;;;;46.70;17.67;;;5.40;99.90;;;;;;4992755;28;20121;-61
2022/01/13 00:57:03;;;;;;;54.90;18.35;;;5.50;99.90;;;;;;4992699;28;20038;-61
2022/01/13 00:59:28;;;;;;;47.92;17.90;;;5.50;99.90;;;;;;4992998;28;20038;-61
2022/01/13 01:01:55;;;;;;;62.15;19.05;;;5.40;99.90;;;;;;4992796;28;20523;-61
2022/01/13 01:04:21;;;;;;;52.20;18.15;;;5.40;99.90;;;;;;4992706;28;20084;-61
2022/01/13 01:06:48;;;;;;;56.03;18.23;;;5.40;99.90;;;;;;4992600;28;20038;-61
2022/01/13 01:09:17;;;;;;;46.78;16.30;;;5.40;99.90;;;;;;4992630;28;20045;-61
2022/01/13 01:11:46;;;;;;;51.67;15.77;;;5.40;99.90;;;;;;4992485;28;20043;-61
2022/01/13 01:14:13;;;;;;;;;;;5.40;99.90;;;;;;4992893;28;20038;-61
2022/01/13 01:16:39;;;;;;;45.55;17.80;;;5.40;99.90;;;;;;5007531;28;19961;-61
2022/01/13 01:19:08;;;;;;;47.13;19.00;;;5.40;99.90;;;;;;4992433;28;20096;-61
2022/01/13 01:26:51;;;;;;;60.20;19.50;;;5.40;99.90;;;;;;4992282;28;20499;-61
2022/01/13 01:29:28;;;;;;;52.25;18.67;;;5.40;99.90;;;;;;4992356;28;20046;-61
2022/01/13 01:31:56;;;;;;;56.00;18.98;;;5.40;99.90;;;;;;4992226;28;20030;-61
2022/01/13 01:37:14;;;;;;;61.20;19.08;;;5.40;99.90;;;;;;4992133;28;20081;-60
2022/01/13 01:39:39;;;;;;;52.20;20.23;;;5.40;99.90;;;;;;4992308;28;20651;-60
2022/01/13 01:42:05;;;;;;;59.38;20.15;;;5.40;99.90;;;;;;4992337;28;20085;-61
2022/01/13 01:44:36;;;;;;;64.22;22.35;;;5.50;99.90;;;;;;4991946;28;20136;-61
2022/01/13 01:47:03;;;;;;;56.03;21.83;;;5.50;99.90;;;;;;4991927;28;20051;-61
2022/01/13 01:49:31;;;;;;;44.28;20.63;;;5.50;99.90;;;;;;4992157;28;20038;-61
2022/01/13 01:51:59;;;;;;;63.78;20.63;;;5.50;99.90;;;;;;4991990;28;20111;-61
2022/01/13 01:54:27;;;;;;;65.20;21.17;;;5.50;99.90;;;;;;4990839;28;20475;-61
2022/01/13 01:56:53;;;;;;;64.13;21.83;;;5.50;99.90;;;;;;4990826;28;20301;-61
2022/01/13 01:59:22;;;;;;;55.75;21.48;;;5.50;99.90;;;;;;4991687;28;20049;-61
2022/01/13 02:01:49;;;;;;;50.15;19.65;;;5.40;99.90;;;;;;4991639;28;20038;-60
2022/01/13 02:04:16;;;;;;;65.05;21.90;;;5.40;99.90;;;;;;4991670;28;20122;-61
2022/01/13 02:06:44;;;;;;;61.78;21.60;;;5.50;99.90;;;;;;4991857;28;20039;-61
2022/01/13 02:09:11;;;;;;;64.63;20.45;;;5.40;99.90;;;;;;4991692;28;20117;-61
2022/01/13 02:11:46;;;;;;;63.15;22.73;;;5.40;99.90;;;;;;4991693;28;20171;-61
2022/01/13 02:14:34;;;;;;;68.88;20.48;;;5.40;99.90;;;;;;4991443;28;20071;-60
2022/01/13 02:17:09;;;;;;;59.00;20.92;;;5.40;99.90;;;;;;4991485;28;20481;-61
2022/01/13 02:19:44;;;;;;;54.08;20.40;;;5.40;99.90;;;;;;4991712;28;20046;-61
2022/01/13 02:22:10;;;;;;;51.75;19.80;;;5.50;99.90;;;;;;4991526;28;20034;-60
2022/01/13 02:24:37;;;;;;;55.75;20.98;;;5.50;99.90;;;;;;4991376;28;20400;-61
2022/01/13 02:27:04;;;;;;;64.50;22.20;;;5.50;99.90;;;;;;4991551;28;20038;-61
2022/01/13 02:29:30;;;;;;;52.50;19.42;;;5.50;99.90;;;;;;4990281;28;20034;-61
2022/01/13 02:31:56;;;;;;;66.20;21.10;;;5.60;99.90;;;;;;4991438;28;20034;-61
2022/01/13 02:34:22;;;;;;;62.22;21.38;;;5.40;99.90;;;;;;4991300;28;20039;-61
2022/01/13 02:36:54;;;;;;;58.50;21.35;;;5.50;99.90;;;;;;4991295;28;20522;-61
2022/01/13 02:39:25;;;;;;;58.35;20.50;;;5.50;99.90;;;;;;4991075;28;20507;-61
2022/01/13 02:41:50;;;;;;;55.13;20.75;;;5.50;99.90;;;;;;4991195;28;20034;-61
2022/01/13 02:44:21;;;;;;;50.42;20.05;;;5.50;99.90;;;;;;4991047;28;20114;-60
2022/01/13 02:49:17;;;;;;;68.28;21.98;;;5.50;99.90;;;;;;4991048;28;20095;-61
2022/01/13 02:51:46;;;;;;;44.60;21.00;;;5.50;99.90;;;;;;4990868;28;20499;-61
2022/01/13 02:54:12;;;;;;;57.38;21.13;;;5.50;99.90;;;;;;4991431;28;20046;-61
2022/01/13 02:56:39;;;;;;;54.45;20.20;;;5.60;99.90;;;;;;4991204;28;20179;-61
2022/01/13 02:59:06;;;;;;;46.97;18.92;;;5.60;99.90;;;;;;4990877;28;20077;-61
2022/01/13 03:01:33;;;;;;;48.08;20.45;;;5.60;99.90;;;;;;4990925;28;20042;-61
2022/01/13 03:04:06;;;;;;;52.15;19.23;;;5.60;99.90;;;;;;4990862;28;20121;-61
2022/01/13 03:06:35;;;;;;;54.38;19.40;;;5.70;99.90;;;;;;4990646;28;20572;-61
2022/01/13 03:09:03;;;;;;;51.00;19.02;;;5.60;99.90;;;;;;4990630;28;20074;-61
2022/01/13 03:11:35;;;;;;;57.55;19.15;;;5.60;99.90;;;;;;4990898;28;20450;-61
2022/01/13 03:14:01;;;;;;;57.50;20.85;;;5.70;99.90;;;;;;4990593;28;20043;-61
2022/01/13 03:16:28;;;;;;;48.80;19.45;;;5.70;99.90;;;;;;4989501;28;20051;-61
2022/01/13 03:18:54;;;;;;;60.72;21.15;;;5.70;99.90;;;;;;4990578;28;20050;-61
2022/01/13 03:21:20;;;;;;;51.92;20.15;;;5.60;99.90;;;;;;4990703;28;20121;-61
2022/01/13 03:23:45;;;;;;;65.80;22.00;;;5.60;99.90;;;;;;4990788;28;20180;-61
2022/01/13 03:26:11;;;;;;;51.42;19.83;;;5.60;99.90;;;;;;4990395;28;20031;-61
2022/01/13 03:28:39;;;;;;;50.95;20.02;;;5.60;99.90;;;;;;4990552;28;20042;-61
2022/01/13 03:31:06;;;;;;;55.40;19.83;;;5.60;99.90;;;;;;4990424;28;20114;-61
2022/01/13 03:33:34;;;;;;;59.10;20.35;;;5.60;99.90;;;;;;4990748;28;20388;-61
2022/01/13 03:36:02;;;;;;;66.60;20.45;;;5.60;99.90;;;;;;4990271;28;20046;-61
2022/01/13 03:38:30;;;;;;;69.70;20.95;;;5.50;99.90;;;;;;4990202;28;20504;-61
2022/01/13 03:40:56;;;;;;;61.65;20.02;;;5.50;99.90;;;;;;4990339;28;20121;-61
2022/01/13 03:43:21;;;;;;;51.88;20.38;;;5.50;99.90;;;;;;4990288;28;20161;-61
2022/01/13 03:45:47;;;;;;;57.22;19.60;;;5.50;99.90;;;;;;4989968;28;20137;-61
2022/01/13 03:48:13;;;;;;;57.05;20.55;;;5.50;99.90;;;;;;4989975;28;20049;-61
2022/01/13 03:50:43;;;;;;;65.03;20.63;;;5.50;99.90;;;;;;4990366;28;20034;-60
2022/01/13 03:53:27;;;;;;;53.70;19.88;;;5.50;99.90;;;;;;4990228;28;20049;-61
2022/01/13 03:56:26;;;;;;;57.38;20.13;;;5.50;99.90;;;;;;4990055;28;20119;-61
2022/01/13 03:59:25;;;;;;;44.60;19.48;;;5.50;99.90;;;;;;4990180;28;20038;-61
2022/01/13 04:02:01;;;;;;;53.85;20.05;;;5.50;99.90;;;;;;4989999;28;20042;-61
2022/01/13 04:04:29;;;;;;;48.40;19.15;;;5.40;99.90;;;;;;4989882;28;20054;-61
2022/01/13 04:07:24;;;;;;;53.28;19.58;;;5.40;99.90;;;;;;4989853;28;20034;-61
2022/01/13 04:09:50;;;;;;;53.60;20.33;;;5.40;99.90;;;;;;4930033;28;20194;-61
2022/01/13 04:12:20;;;;;;;59.53;20.30;;;5.40;99.90;;;;;;4930022;29;20547;-61
2022/01/13 04:14:52;;;;;;;59.45;20.33;;;5.40;99.90;;;;;;4929805;28;20079;-61
2022/01/13 04:17:20;;;;;;;67.47;19.45;;;5.40;99.90;;;;;;4929811;28;20039;-61
2022/01/13 04:19:46;;;;;;;75.22;20.67;;;5.40;99.90;;;;;;4929030;29;20089;-61
2022/01/13 04:22:13;;;;;;;72.97;21.33;;;5.40;99.90;;;;;;4913963;29;20445;-61
2022/01/13 04:24:45;;;;;;;69.82;21.55;;;5.40;99.90;;;;;;4929747;29;20071;-61
2022/01/13 04:27:20;;;;;;;65.57;21.27;;;5.40;99.90;;;;;;4929681;28;20187;-61
2022/01/13 04:29:46;;;;;;;71.32;20.73;;;5.40;99.90;;;;;;4929934;28;20043;-61
2022/01/13 04:32:12;;;;;;;69.05;21.02;;;5.40;99.90;;;;;;4930116;28;20150;-61
2022/01/13 04:34:37;;;;;;;67.22;20.08;;;5.40;99.90;;;;;;4929742;29;20135;-61
2022/01/13 04:37:03;;;;;;;64.03;20.23;;;5.40;99.90;;;;;;4929724;29;20050;-61
2022/01/13 04:39:31;;;;;;;73.25;20.70;;;5.40;99.90;;;;;;4913753;29;20407;-61
2022/01/13 04:41:57;;;;;;;71.35;20.52;;;5.40;99.90;;;;;;4914022;28;20051;-61
2022/01/13 04:44:24;;;;;;;89.28;22.40;;;5.40;99.90;;;;;;4996894;28;20055;-60
2022/01/13 04:46:54;;;;;;;89.20;22.63;;;5.40;99.90;;;;;;4975483;28;20055;-60
2022/01/13 04:49:20;;;;;;;79.47;22.00;;;5.50;99.90;;;;;;4989662;28;20061;-61
2022/01/13 04:51:48;;;;;;;76.10;20.55;;;5.40;99.90;;;;;;4989526;28;20109;-61
2022/01/13 04:54:14;;;;;;;87.60;23.95;;;5.50;99.90;;;;;;4989495;28;20039;-61
2022/01/13 04:59:17;;;;;;;62.38;21.33;;;5.50;99.90;;;;;;4989385;28;20129;-61
2022/01/13 05:01:43;;;;;;;67.28;20.90;;;5.50;99.90;;;;;;4989369;28;20117;-61
2022/01/13 05:04:09;;;;;;;86.53;21.92;;;5.40;99.90;;;;;;4989181;28;20027;-61
2022/01/13 05:06:35;;;;;;;78.50;21.25;;;5.50;99.90;;;;;;4989137;28;20520;-61
2022/01/13 05:09:02;;;;;;;55.55;21.02;;;5.50;99.90;;;;;;4989081;28;20092;-61
2022/01/13 05:11:27;;;;;;;56.85;20.58;;;5.50;99.90;;;;;;4989004;28;20117;-61
2022/01/13 05:13:53;;;;;;;84.55;22.40;;;5.40;99.90;;;;;;4989014;28;20536;-61
2022/01/13 05:16:24;;;;;;;66.47;21.13;;;5.40;99.90;;;;;;4989256;28;20046;-61
2022/01/13 05:18:58;;;;;;;72.47;19.73;;;5.40;99.90;;;;;;4989061;28;20046;-61
2022/01/13 05:21:27;;;;;;;72.88;18.75;;;5.40;99.90;;;;;;4989063;28;20098;-61
2022/01/13 05:23:53;;;;;;;87.18;21.90;;;5.50;99.90;;;;;;4988912;28;20462;-61
2022/01/13 05:26:21;;;;;;;72.95;19.63;;;5.50;99.90;;;;;;4989064;28;20453;-61
2022/01/13 05:28:46;;;;;;;75.20;19.52;;;5.50;99.90;;;;;;4989045;28;20043;-61
2022/01/13 05:31:12;;;;;;;100.28;22.52;;;5.50;99.90;;;;;;4990211;28;20476;-61
2022/01/13 05:33:38;;;;;;;81.78;19.13;;;5.50;99.90;;;;;;4992306;28;20042;-61
2022/01/13 05:36:04;;;;;;;82.95;20.42;;;5.50;99.90;;;;;;4992158;28;20049;-61
2022/01/13 05:38:30;;;;;;;75.80;19.75;;;5.50;99.90;;;;;;4992082;28;20121;-61
2022/01/13 05:40:58;;;;;;;104.28;22.63;;;5.50;99.90;;;;;;4992046;28;20207;-61
2022/01/13 05:43:26;;;;;;;76.00;19.65;;;5.50;99.90;;;;;;4992257;28;20121;-61
2022/01/13 05:45:52;;;;;;;92.40;21.35;;;5.50;99.90;;;;;;4991871;28;20424;-61
2022/01/13 05:48:17;;;;;;;80.85;19.83;;;5.50;99.90;;;;;;4991968;28;20045;-61
2022/01/13 05:50:43;;;;;;;97.88;23.30;;;5.50;99.90;;;;;;4990892;28;20038;-61
2022/01/13 05:53:09;;;;;;;88.72;22.88;;;5.50;99.90;;;;;;4991800;28;20049;-60
2022/01/13 05:55:34;;;;;;;109.78;24.00;;;5.50;99.90;;;;;;4992010;28;20038;-60
2022/01/13 05:58:00;;;;;;;75.45;21.40;;;5.50;99.90;;;;;;4991983;28;20046;-61
2022/01/13 06:00:26;;;;;;;97.57;22.90;;;5.60;99.90;;;;;;4991639;28;20038;-61
2022/01/13 06:02:52;;;;;;;98.70;23.35;;;5.50;99.90;;;;;;4991852;28;20057;-61
2022/01/13 06:05:19;;;;;;;91.63;23.38;;;5.60;99.90;;;;;;4991884;28;20046;-61
2022/01/13 06:07:45;;;;;;;91.47;23.30;;;5.60;99.90;;;;;;4991953;28;20462;-61
2022/01/13 06:10:15;;;;;;;80.78;21.85;;;5.60;99.90;;;;;;4991886;28;20039;-61
2022/01/13 06:12:41;;;;;;;96.38;25.98;;;5.60;99.90;;;;;;4991775;28;20092;-61
2022/01/13 06:15:12;;;;;;;77.35;23.25;;;5.60;99.90;;;;;;4991895;28;20535;-61
2022/01/13 06:17:39;;;;;;;96.32;25.90;;;5.70;99.90;;;;;;4991523;28;20047;-61
2022/01/13 06:20:07;;;;;;;87.72;24.90;;;5.70;99.90;;;;;;4991476;28;20568;-61
2022/01/13 06:22:32;;;;;;;80.57;22.40;;;5.70;99.90;;;;;;4991621;28;20046;-61
2022/01/13 06:24:58;;;;;;;101.00;25.42;;;5.70;99.90;;;;;;4991235;28;20091;-60
2022/01/13 06:27:24;;;;;;;92.82;24.83;;;5.80;99.90;;;;;;4991270;28;20045;-61
2022/01/13 06:29:53;;;;;;;81.57;24.65;;;5.80;99.90;;;;;;4991168;28;20078;-61
2022/01/13 06:32:20;;;;;;;95.45;25.83;;;5.80;99.90;;;;;;4991236;28;20125;-61
2022/01/13 06:34:46;;;;;;;73.93;25.55;;;5.80;99.90;;;;;;4991309;28;20178;-61
2022/01/13 06:37:11;;;;;;;91.13;25.65;;;5.80;99.90;;;;;;4991478;28;20079;-61
2022/01/13 06:39:37;;;;;;;95.50;26.13;;;5.80;99.90;;;;;;4991158;28;20404;-61
2022/01/13 06:42:03;;;;;;;105.45;27.52;;;5.90;99.90;;;;;;4991160;28;20042;-61
2022/01/13 06:44:29;;;;;;;79.95;24.98;;;5.90;99.90;;;;;;4991035;28;20180;-61
2022/01/13 06:46:55;;;;;;;94.22;27.45;;;5.90;99.90;;;;;;4989156;28;20535;-61
2022/01/13 06:49:21;;;;;;;105.18;26.90;;;6.00;99.90;;;;;;4991038;28;20042;-61
2022/01/13 06:51:46;;;;;;;100.10;26.63;;;6.00;99.90;;;;;;4991183;28;20464;-61
2022/01/13 06:54:12;;;;;;;93.55;26.98;;;6.00;99.90;;;;;;4991100;28;20063;-61
2022/01/13 06:56:38;;;;;;;86.22;27.27;;;6.00;99.90;;;;;;4991056;28;20042;-61
2022/01/13 06:59:09;;;;;;;87.82;26.40;;;6.00;99.90;;;;;;4990849;28;20042;-61
2022/01/13 07:01:35;;;;;;;94.90;26.85;;;6.10;99.90;;;;;;4989692;28;20054;-61
2022/01/13 07:04:01;;;;;;;112.05;30.38;;;6.10;99.90;;;;;;4990801;28;20054;-61
2022/01/13 07:06:26;;;;;;;106.05;28.52;;;6.10;99.90;;;;;;4990723;28;20046;-61
2022/01/13 07:08:52;;;;;;;100.00;27.75;;;6.10;99.90;;;;;;4990812;28;20042;-61
2022/01/13 07:11:18;;;;;;;103.95;27.27;;;6.10;99.90;;;;;;4990732;28;20042;-61
2022/01/13 07:13:43;;;;;;;134.70;30.15;;;6.10;99.90;;;;;;4990605;28;20034;-61
2022/01/13 07:16:09;;;;;;;97.00;28.95;;;6.10;99.90;;;;;;4990575;28;20042;-61
2022/01/13 07:18:38;;;;;;;98.35;28.00;;;6.20;99.90;;;;;;4990463;28;20551;-61
2022/01/13 07:21:08;;;;;;;;;;;6.20;99.90;;;;;;4990910;28;20568;-61
2022/01/13 07:23:34;;;;;;;93.35;30.25;;;6.20;99.90;;;;;;4990816;28;20413;-61
2022/01/13 07:26:02;;;;;;;100.95;28.67;;;6.20;99.90;;;;;;4990352;28;20038;-61
2022/01/13 07:28:29;;;;;;;105.18;30.23;;;6.30;99.90;;;;;;4990557;28;20050;-61
2022/01/13 07:30:56;;;;;;;101.05;29.52;;;6.30;99.90;;;;;;4990383;28;20122;-62
2022/01/13 07:33:21;;;;;;;103.60;29.35;;;6.30;99.90;;;;;;4990597;28;20047;-61
2022/01/13 07:35:47;;;;;;;99.15;29.17;;;6.20;99.90;;;;;;4990192;28;20450;-61
2022/01/13 07:38:13;;;;;;;98.03;29.33;;;6.20;99.90;;;;;;4990431;28;20127;-62
2022/01/13 07:40:38;;;;;;;104.13;29.10;;;6.20;99.90;;;;;;4990343;28;20048;-60
2022/01/13 07:43:04;;;;;;;107.10;28.25;;;6.20;99.90;;;;;;4990256;28;20050;-60
2022/01/13 07:45:30;;;;;;;98.38;27.40;;;6.20;99.90;;;;;;4989916;28;20054;-61
2022/01/13 07:47:55;;;;;;;98.35;28.95;;;6.30;99.90;;;;;;4990236;28;20053;-61
2022/01/13 07:50:21;;;;;;;101.45;29.55;;;6.30;99.90;;;;;;4990111;28;20034;-61
2022/01/13 07:52:47;;;;;;;90.30;26.98;;;6.30;99.90;;;;;;4990175;28;20117;-61
2022/01/13 07:55:13;;;;;;;90.25;27.38;;;6.30;99.90;;;;;;4989095;28;20046;-61
2022/01/13 07:57:39;;;;;;;86.30;25.85;;;6.20;99.90;;;;;;4990276;28;20440;-60
2022/01/13 08:00:08;;;;;;;101.57;28.83;;;6.30;99.90;;;;;;4990136;28;20050;-60
2022/01/13 08:02:34;;;;;;;108.45;28.52;;;6.30;99.90;;;;;;4989866;28;20480;-61
2022/01/13 08:05:00;;;;;;;101.72;28.48;;;6.30;99.90;;;;;;4989057;28;20476;-60
2022/01/13 08:07:26;;;;;;;96.60;28.35;;;6.30;99.90;;;;;;4990257;28;20459;-60
2022/01/13 08:09:51;;;;;;;99.88;29.80;;;6.30;99.90;;;;;;4990022;28;20035;-61
2022/01/13 08:12:17;;;;;;;92.15;28.08;;;6.30;99.90;;;;;;4989640;28;20038;-61
2022/01/13 08:14:43;;;;;;;93.70;27.48;;;6.30;99.90;;;;;;4989700;28;20126;-61
2022/01/13 08:17:18;;;;;;;99.95;28.73;;;6.30;99.90;;;;;;4989897;28;20046;-61
2022/01/13 08:19:48;;;;;;;84.57;26.95;;;6.30;99.90;;;;;;4989789;28;20046;-61
2022/01/13 08:22:17;;;;;;;97.22;28.52;;;6.30;99.90;;;;;;4989953;28;20046;-62
2022/01/13 08:24:43;;;;;;;;;;;6.30;99.90;;;;;;4990288;28;20540;-61
2022/01/13 08:27:09;;;;;;;81.15;26.65;;;6.30;99.90;;;;;;4990128;28;19968;-61
2022/01/13 08:29:35;;;;;;;84.03;26.40;;;6.30;99.90;;;;;;4989672;28;20088;-61
2022/01/13 08:32:01;;;;;;;90.85;28.13;;;6.30;99.90;;;;;;4989757;28;20035;-61
2022/01/13 08:34:27;;;;;;;99.20;27.65;;;6.30;99.90;;;;;;4989591;28;20560;-61
2022/01/13 08:36:53;;;;;;;83.78;27.10;;;6.20;99.90;;;;;;4989766;28;20057;-60
2022/01/13 08:39:18;;;;;;;97.47;27.92;;;6.30;99.90;;;;;;4989619;28;20077;-61
2022/01/13 08:41:45;;;;;;;87.15;27.38;;;6.30;99.90;;;;;;4989479;28;20073;-61
2022/01/13 08:44:11;;;;;;;94.10;28.27;;;6.30;99.90;;;;;;4989988;28;20124;-60
2022/01/13 08:46:37;;;;;;;84.22;27.80;;;6.20;99.90;;;;;;4989026;28;20568;-60
2022/01/13 08:49:03;;;;;;;92.72;28.05;;;6.20;99.90;;;;;;4989238;28;20507;-61
2022/01/13 08:51:29;;;;;;;88.97;27.77;;;6.20;99.90;;;;;;4989252;28;20113;-61
2022/01/13 08:53:55;;;;;;;77.60;25.98;;;6.20;99.90;;;;;;4989169;28;20113;-61
2022/01/13 08:56:21;;;;;;;87.95;27.48;;;6.20;99.90;;;;;;4989043;28;20460;-61
2022/01/13 08:58:47;;;;;;;78.88;27.08;;;6.30;99.90;;;;;;4989389;28;20096;-61
2022/01/13 09:01:14;;;;;;;79.03;27.25;;;6.20;99.90;;;;;;4989296;28;20450;-61
2022/01/13 09:03:39;;;;;;;72.15;27.15;;;6.20;99.90;;;;;;4989207;28;20042;-60
2022/01/13 09:06:05;;;;;;;83.18;27.73;;;6.20;99.90;;;;;;4990247;28;20053;-61
2022/01/13 09:08:31;;;;;;;80.55;27.50;;;6.30;99.90;;;;;;4992489;28;20448;-61
2022/01/13 09:10:57;;;;;;;78.70;27.45;;;6.30;99.90;;;;;;4992388;28;20042;-61
2022/01/13 09:13:24;;;;;;;85.85;27.85;;;6.20;99.90;;;;;;4992636;28;20049;-61
2022/01/13 09:15:59;;;;;;;87.97;27.98;;;6.30;99.90;;;;;;4992511;28;20103;-61
2022/01/13 09:21:10;;;;;;;82.93;28.23;;;6.30;99.90;;;;;;4992414;28;20046;-60
2022/01/13 09:23:36;;;;;;;77.20;26.60;;;6.30;99.90;;;;;;4992125;28;20121;-61
2022/01/13 09:26:03;;;;;;;81.28;26.75;;;6.30;99.90;;;;;;4992358;28;20453;-61
2022/01/13 09:28:29;;;;;;;75.18;26.67;;;6.30;99.90;;;;;;4992033;28;20480;-61
2022/01/13 09:30:54;;;;;;;86.05;28.20;;;6.30;99.90;;;;;;4992234;28;20034;-61
2022/01/13 09:33:21;;;;;;;79.43;27.08;;;6.40;99.90;;;;;;4992187;28;20045;-60
2022/01/13 09:35:47;;;;;;;74.55;28.45;;;6.30;99.90;;;;;;4992191;28;20042;-61
2022/01/13 09:38:13;;;;;;;82.18;28.30;;;6.30;99.90;;;;;;4990604;28;20057;-61
2022/01/13 09:40:46;;;;;;;76.13;28.50;;;6.30;99.90;;;;;;4992033;28;20042;-61
2022/01/13 09:43:12;;;;;;;76.75;28.23;;;6.30;99.90;;;;;;4992042;28;20042;-60
2022/01/13 09:45:39;;;;;;;71.03;27.88;;;6.40;99.90;;;;;;4991845;28;20057;-61
2022/01/13 09:48:06;;;;;;;83.53;29.10;;;6.30;99.90;;;;;;4991959;28;20042;-61
2022/01/13 09:50:32;;;;;;;67.97;26.90;;;6.30;99.90;;;;;;4991857;28;20117;-61
2022/01/13 09:52:58;;;;;;;66.93;28.13;;;6.30;99.90;;;;;;4992149;28;20045;-61
2022/01/13 09:55:24;;;;;;;79.55;27.15;;;6.30;99.90;;;;;;4992051;28;20477;-61
2022/01/13 09:57:51;;;;;;;66.18;26.88;;;6.40;99.90;;;;;;4991460;28;20060;-61
2022/01/13 10:00:20;;;;;;;67.93;26.05;;;6.40;99.90;;;;;;4991781;28;20450;-61
2022/01/13 10:02:46;;;;;;;66.07;27.00;;;6.40;99.90;;;;;;4991783;28;20477;-61
2022/01/13 10:05:12;;;;;;;66.72;28.15;;;6.50;99.90;;;;;;4991426;28;20050;-61
2022/01/13 10:07:43;;;;;;;77.05;28.63;;;6.40;99.90;;;;;;4991813;28;20038;-61
2022/01/13 10:10:14;;;;;;;72.53;27.52;;;6.50;99.90;;;;;;4991714;28;20053;-61
2022/01/13 10:12:42;;;;;;;77.00;29.08;;;6.50;99.90;;;;;;4991645;28;20118;-61
2022/01/13 10:18:03;;;;;;;70.05;28.52;;;6.50;99.90;;;;;;4990594;28;20046;-61
2022/01/13 10:20:29;;;;;;;69.55;27.63;;;6.50;99.90;;;;;;4991753;28;20088;-61
2022/01/13 10:23:04;;;;;;;66.30;28.05;;;6.50;99.90;;;;;;4991789;28;20077;-61
2022/01/13 10:25:32;;;;;;;74.07;27.75;;;6.50;99.90;;;;;;4991390;28;20507;-61
2022/01/13 10:28:21;;;;;;;82.45;30.50;;;6.50;99.90;;;;;;4991365;28;20416;-61
2022/01/13 10:30:50;;;;;;;74.03;28.73;;;6.60;99.90;;;;;;4991287;28;20038;-61
2022/01/13 10:33:24;;;;;;;74.10;29.37;;;6.70;99.90;;;;;;4990387;28;20042;-61
2022/01/13 10:35:52;;;;;;;66.45;28.88;;;6.60;99.90;;;;;;4991458;28;20284;-60
2022/01/13 10:38:20;;;;;;;69.60;30.42;;;6.60;99.90;;;;;;4991473;28;20911;-61
2022/01/13 10:40:52;;;;;;;72.28;29.15;;;6.60;99.90;;;;;;4991669;28;20092;-60
2022/01/13 10:43:24;;;;;;;65.75;29.52;;;6.50;99.90;;;;;;4991166;28;20077;-60
2022/01/13 10:45:56;;;;;;;78.05;30.05;;;6.50;99.90;;;;;;4991072;28;20061;-60
2022/01/13 10:48:28;;;;;;;75.82;30.17;;;6.50;99.90;;;;;;4991139;28;20038;-60
2022/01/13 10:51:04;;;;;;;69.20;30.52;;;6.70;99.90;;;;;;4991904;28;20050;-60
2022/01/13 10:53:41;;;;;;;78.28;29.85;;;6.60;99.90;;;;;;4991204;28;20423;-60
2022/01/13 10:56:18;;;;;;;69.57;29.40;;;6.60;99.90;;;;;;4991028;28;20046;-60
2022/01/13 10:58:53;;;;;;;75.35;30.23;;;6.60;99.90;;;;;;4991014;28;20130;-60
2022/01/13 11:01:19;;;;;;;69.93;30.23;;;6.60;99.90;;;;;;4990839;28;20042;-61
2022/01/13 11:03:46;;;;;;;69.57;29.75;;;6.70;99.90;;;;;;4989268;28;20103;-60
2022/01/13 11:06:13;;;;;;;64.28;29.52;;;6.60;99.90;;;;;;4990731;28;20507;-61
2022/01/13 11:08:44;;;;;;;73.18;30.63;;;6.70;99.90;;;;;;4990744;28;20038;-60
2022/01/13 11:11:26;;;;;;;79.40;32.47;;;6.70;99.90;;;;;;4990848;28;20119;-61
2022/01/13 11:14:07;;;;;;;65.18;30.27;;;6.70;99.90;;;;;;4990550;28;20389;-60
2022/01/13 11:16:34;;;;;;;75.22;30.75;;;6.70;99.90;;;;;;4990769;28;20050;-60
2022/01/13 11:19:00;;;;;;;70.72;33.22;;;6.70;99.90;;;;;;4990702;28;20038;-60
2022/01/13 11:21:28;;;;;;;78.95;32.03;;;6.70;99.90;;;;;;4990664;28;20083;-60
2022/01/13 11:23:55;;;;;;;73.47;30.38;;;6.70;99.90;;;;;;4990458;28;20051;-60
2022/01/13 11:26:26;;;;;;;63.08;29.13;;;6.80;99.90;;;;;;4990396;28;20397;-61
2022/01/13 11:28:54;;;;;;;69.38;31.13;;;6.80;99.90;;;;;;4990470;28;20042;-60
2022/01/13 11:31:20;;;;;;;68.63;29.17;;;6.90;99.90;;;;;;4990344;28;20038;-60
2022/01/13 11:33:45;;;;;;;62.45;29.02;;;6.80;99.90;;;;;;4990376;28;20045;-60
2022/01/13 11:36:12;;;;;;;59.05;29.05;;;6.90;99.90;;;;;;4990291;28;20045;-60
2022/01/13 11:38:51;;;;;;;68.63;29.15;;;6.80;99.90;;;;;;4990245;28;20057;-60
2022/01/13 11:41:17;;;;;;;66.57;29.40;;;6.80;99.90;;;;;;4990840;28;20113;-60
2022/01/13 11:43:43;;;;;;;56.63;27.77;;;6.90;99.90;;;;;;4990351;28;20465;-61
2022/01/13 11:46:19;;;;;;;57.33;27.15;;;6.90;99.90;;;;;;4989931;28;20057;-61
2022/01/13 11:49:15;;;;;;;60.47;28.50;;;6.90;99.90;;;;;;4990152;28;20042;-61
2022/01/13 11:51:48;;;;;;;64.30;28.05;;;6.90;99.90;;;;;;4990218;28;20039;-61
2022/01/13 11:54:32;;;;;;;57.08;28.42;;;7.00;99.90;;;;;;4990478;28;20138;-60
2022/01/13 11:57:16;;;;;;;56.95;28.73;;;6.90;99.90;;;;;;4989996;28;20622;-61
2022/01/13 12:00:21;;;;;;;68.85;29.40;;;6.90;99.90;;;;;;4989856;28;20043;-61
2022/01/13 12:02:47;;;;;;;58.97;27.13;;;6.90;99.90;;;;;;4989994;28;20042;-61
2022/01/13 12:05:21;;;;;;;62.15;28.95;;;6.90;99.90;;;;;;4989858;28;20043;-61
2022/01/13 12:07:48;;;;;;;71.00;30.98;;;6.90;99.90;;;;;;4989821;28;20045;-61
2022/01/13 12:10:37;;;;;;;64.78;28.05;;;6.90;99.90;;;;;;4988784;28;20042;-61
2022/01/13 12:13:27;;;;;;;52.33;26.95;;;7.00;99.90;;;;;;4990137;28;20046;-61
2022/01/13 12:15:54;;;;;;;49.22;26.42;;;7.00;99.90;;;;;;4989873;28;20038;-60
2022/01/13 12:18:48;;;;;;;55.17;27.63;;;7.00;99.90;;;;;;4989781;28;20038;-61
2022/01/13 12:21:28;;;;;;;46.80;25.05;;;7.10;99.90;;;;;;4989688;28;20049;-60
2022/01/13 12:23:55;;;;;;;48.67;26.38;;;7.10;99.90;;;;;;4989838;28;20053;-61
2022/01/13 12:26:33;;;;;;;49.80;25.35;;;7.10;99.90;;;;;;4989732;28;20049;-60
2022/01/13 12:29:41;;;;;;;54.50;25.58;;;7.10;99.90;;;;;;4989640;28;20085;-61
2022/01/13 12:32:08;;;;;;;43.50;25.02;;;7.10;99.90;;;;;;4989503;28;20061;-61
2022/01/13 12:34:35;;;;;;;51.33;25.88;;;7.10;99.90;;;;;;4989620;28;20397;-61
2022/01/13 12:37:09;;;;;;;45.22;24.45;;;7.10;99.90;;;;;;4989648;28;20108;-60
2022/01/13 12:39:49;;;;;;;48.85;25.27;;;7.10;99.90;;;;;;4989688;28;20046;-60
2022/01/13 12:42:24;;;;;;;43.75;25.40;;;7.10;99.90;;;;;;4988924;28;20088;-60
2022/01/13 12:47:35;;;;;;;43.03;24.02;;;7.20;99.90;;;;;;4989309;28;20061;-61
2022/01/13 12:50:10;;;;;;;49.47;23.85;;;7.30;99.90;;;;;;4989660;28;20074;-61
2022/01/13 12:52:36;;;;;;;44.33;24.35;;;7.40;99.90;;;;;;4989515;28;20043;-60
2022/01/13 12:55:02;;;;;;;53.28;25.58;;;7.40;99.90;;;;;;4989402;28;20053;-60
2022/01/13 12:57:28;;;;;;;42.45;22.75;;;7.40;99.90;;;;;;4989356;28;20121;-61
2022/01/13 12:59:58;;;;;;;45.17;23.25;;;7.50;99.90;;;;;;4989265;28;20457;-60
2022/01/13 13:02:23;;;;;;;39.83;23.50;;;7.50;99.90;;;;;;4989147;28;20042;-61
2022/01/13 13:04:49;;;;;;;39.15;22.70;;;7.50;99.90;;;;;;4989365;28;20546;-61
2022/01/13 13:07:15;;;;;;;41.92;22.95;;;7.60;99.90;;;;;;4989335;28;20085;-61
2022/01/13 13:09:41;;;;;;;41.25;22.52;;;7.60;99.90;;;;;;4989177;28;20046;-61
2022/01/13 13:12:11;;;;;;;40.95;22.33;;;7.60;99.90;;;;;;4989110;28;20096;-61
2022/01/13 13:17:30;;;;;;;41.67;23.25;;;7.70;99.90;;;;;;4989162;28;20081;-61